Time;durP1;ratioP1;P1;durP2;ratioP2;P2;SDS_P1;SDS_P2;PMS_P1;PMS_P2;Temp;Humidity;BMP_temperature;BMP_pressure;BME280_temperature;BME280_humidity;BME280_pressure;Samples;Min_cycle;Max_cycle;Signal;HPM_P1;HPM_P2
2023/06/27 00:02:02;;;;;;;8.90;5.82;;;22.60;51.70;;;;;;6151733;22;114091;-79
2023/06/27 00:04:30;;;;;;;10.20;6.10;;;22.70;50.60;;;;;;6150969;22;114294;-79
2023/06/27 00:06:58;;;;;;;8.60;6.15;;;22.80;51.40;;;;;;6143549;22;115118;-78
2023/06/27 00:09:27;;;;;;;9.15;5.97;;;22.80;50.60;;;;;;6141765;22;115179;-78
2023/06/27 00:11:54;;;;;;;7.95;5.60;;;23.00;51.30;;;;;;6144227;22;114101;-78
2023/06/27 00:14:21;;;;;;;8.73;5.50;;;23.10;50.00;;;;;;6144096;22;114343;-78
2023/06/27 00:16:51;;;;;;;11.52;6.22;;;23.10;49.80;;;;;;6142937;22;115154;-79
2023/06/27 00:19:19;;;;;;;6.57;5.07;;;23.20;50.40;;;;;;6142926;22;114787;-78
2023/06/27 00:21:46;;;;;;;7.30;5.47;;;23.10;48.90;;;;;;6143901;22;114239;-78
2023/06/27 00:24:13;;;;;;;7.75;5.90;;;23.30;50.10;;;;;;6145090;22;114557;-80
2023/06/27 00:26:40;;;;;;;9.18;5.88;;;23.30;51.60;;;;;;6144442;22;117044;-78
2023/06/27 00:29:07;;;;;;;10.07;5.63;;;23.30;50.20;;;;;;6143018;22;117464;-78
2023/06/27 00:31:34;;;;;;;8.30;5.35;;;23.40;49.90;;;;;;6143697;22;114752;-78
2023/06/27 00:34:01;;;;;;;8.65;5.32;;;23.50;51.70;;;;;;6144747;22;114417;-78
2023/06/27 00:36:28;;;;;;;7.70;5.60;;;23.40;49.90;;;;;;6144347;22;116178;-77
2023/06/27 00:38:55;;;;;;;6.72;5.40;;;23.50;50.10;;;;;;6142875;22;114566;-78
2023/06/27 00:41:23;;;;;;;8.23;5.55;;;23.50;51.50;;;;;;6144276;22;114322;-78
2023/06/27 00:43:50;;;;;;;8.23;5.72;;;23.60;50.30;;;;;;6145285;22;114094;-78
2023/06/27 00:46:28;;;;;;;7.05;5.25;;;23.50;50.80;;;;;;6118039;22;115474;-78
2023/06/27 00:48:56;;;;;;;8.43;5.50;;;23.60;50.70;;;;;;6117837;22;115056;-78
2023/06/27 00:51:23;;;;;;;7.93;4.95;;;23.50;50.00;;;;;;6094786;22;114220;-78
2023/06/27 00:53:50;;;;;;;7.47;5.07;;;23.50;49.80;;;;;;6144072;22;114157;-78
2023/06/27 00:56:18;;;;;;;8.30;5.07;;;23.60;50.10;;;;;;6118312;22;115056;-79
2023/06/27 00:58:46;;;;;;;8.25;5.90;;;23.60;49.90;;;;;;6144237;22;115147;-79
2023/06/27 01:01:13;;;;;;;7.40;5.18;;;23.60;50.10;;;;;;6144063;22;114149;-79
2023/06/27 01:03:40;;;;;;;7.32;5.22;;;23.50;49.30;;;;;;6144428;22;114162;-79
2023/06/27 01:06:18;;;;;;;7.88;5.38;;;23.60;50.90;;;;;;6142771;22;114804;-79
2023/06/27 01:08:50;;;;;;;7.95;5.68;;;23.60;50.90;;;;;;6119644;22;114629;-79
2023/06/27 01:11:24;;;;;;;7.25;5.32;;;23.50;51.70;;;;;;6119563;22;114420;-78
2023/06/27 01:13:55;;;;;;;10.60;5.37;;;23.40;50.90;;;;;;6144159;22;114631;-78
2023/06/27 01:16:24;;;;;;;7.43;5.05;;;23.40;51.00;;;;;;6142622;22;114882;-79
2023/06/27 01:18:51;;;;;;;7.30;5.15;;;23.50;51.10;;;;;;6117808;22;114662;-79
2023/06/27 01:21:37;;;;;;;8.93;6.03;;;23.50;50.70;;;;;;6119022;22;114339;-79
2023/06/27 01:24:06;;;;;;;6.57;5.13;;;23.50;52.70;;;;;;6143788;22;114336;-79
2023/06/27 01:26:34;;;;;;;7.85;5.55;;;23.50;51.40;;;;;;6142459;22;115400;-79
2023/06/27 01:29:01;;;;;;;6.63;4.70;;;23.50;51.70;;;;;;6118195;22;114733;-78
2023/06/27 01:31:46;;;;;;;7.95;5.07;;;23.50;50.30;;;;;;6118488;22;114146;-79
2023/06/27 01:34:34;;;;;;;6.63;4.93;;;23.60;51.10;;;;;;6143331;22;114302;-79
2023/06/27 01:37:11;;;;;;;7.18;5.55;;;23.60;50.90;;;;;;6118134;22;116521;-79
2023/06/27 01:39:42;;;;;;;6.50;5.07;;;23.50;53.30;;;;;;6142681;22;114631;-79
2023/06/27 01:42:18;;;;;;;6.75;5.22;;;23.00;54.80;;;;;;6145334;22;114219;-79
2023/06/27 01:44:46;;;;;;;6.15;5.03;;;22.70;53.70;;;;;;6143993;22;114312;-79
2023/06/27 01:47:14;;;;;;;8.60;5.47;;;22.60;54.20;;;;;;6117445;22;115457;-79
2023/06/27 01:49:41;;;;;;;6.90;4.72;;;22.80;55.10;;;;;;6118115;22;114618;-79
2023/06/27 01:52:10;;;;;;;6.55;5.10;;;22.80;53.40;;;;;;6118823;22;114212;-79
2023/06/27 01:54:41;;;;;;;8.48;6.22;;;22.60;55.00;;;;;;6145235;22;114249;-79
2023/06/27 01:57:09;;;;;;;5.55;4.35;;;22.30;57.10;;;;;;6144109;22;115417;-79
2023/06/27 01:59:36;;;;;;;7.03;6.15;;;22.30;55.10;;;;;;6146025;22;114948;-79
2023/06/27 02:02:03;;;;;;;6.15;4.93;;;22.50;57.10;;;;;;6145339;22;114315;-79
2023/06/27 02:04:30;;;;;;;7.57;6.00;;;22.60;55.30;;;;;;6118533;22;114620;-79
2023/06/27 02:06:59;;;;;;;6.90;6.20;;;22.70;56.00;;;;;;6144390;22;114743;-79
2023/06/27 02:09:26;;;;;;;6.03;5.18;;;22.80;56.20;;;;;;6144475;22;114770;-79
2023/06/27 02:11:53;;;;;;;6.53;4.78;;;22.70;55.00;;;;;;6145651;22;114614;-79
2023/06/27 02:14:20;;;;;;;6.68;5.30;;;22.70;54.50;;;;;;6118868;22;114488;-79
2023/06/27 02:16:47;;;;;;;7.38;5.75;;;22.70;55.40;;;;;;6117178;22;115457;-79
2023/06/27 02:19:17;;;;;;;6.97;5.70;;;22.70;54.90;;;;;;6118696;22;115061;-79
2023/06/27 02:21:48;;;;;;;7.70;4.63;;;22.80;55.10;;;;;;6118638;22;114192;-79
2023/06/27 02:24:17;;;;;;;6.90;5.93;;;22.80;53.80;;;;;;6143840;22;114186;-80
2023/06/27 02:26:44;;;;;;;6.38;4.80;;;23.00;54.50;;;;;;6143599;22;114865;-80
2023/06/27 02:29:11;;;;;;;6.85;5.78;;;23.00;53.70;;;;;;6142591;22;115213;-79
2023/06/27 02:31:39;;;;;;;8.98;6.78;;;23.10;54.50;;;;;;6145619;22;114245;-79
2023/06/27 02:34:06;;;;;;;6.68;5.32;;;23.10;55.20;;;;;;6118616;22;114334;-79
2023/06/27 02:36:33;;;;;;;7.30;5.90;;;23.00;54.60;;;;;;6144450;22;114851;-79
2023/06/27 02:39:01;;;;;;;7.30;5.90;;;22.90;54.90;;;;;;6144025;22;114503;-79
2023/06/27 02:41:28;;;;;;;6.00;5.30;;;22.80;55.90;;;;;;6143892;22;114429;-80
2023/06/27 02:43:55;;;;;;;5.78;5.00;;;22.70;55.60;;;;;;6143301;22;114317;-79
2023/06/27 02:46:26;;;;;;;7.05;5.22;;;22.70;54.90;;;;;;6144220;22;115348;-79
2023/06/27 02:48:53;;;;;;;5.82;4.07;;;22.80;55.00;;;;;;6143006;22;115190;-80
2023/06/27 02:51:21;;;;;;;5.53;4.30;;;22.90;53.80;;;;;;6118721;22;114465;-80
2023/06/27 02:53:48;;;;;;;5.72;4.50;;;23.00;53.70;;;;;;6145919;22;114700;-79
2023/06/27 02:56:16;;;;;;;6.93;5.28;;;23.10;53.30;;;;;;6117868;22;116817;-79
2023/06/27 02:58:43;;;;;;;6.90;5.68;;;23.20;53.60;;;;;;6144024;22;114802;-79
2023/06/27 03:01:10;;;;;;;6.45;5.40;;;23.30;54.30;;;;;;6143789;22;114395;-80
2023/06/27 03:03:43;;;;;;;6.20;5.57;;;23.30;54.40;;;;;;6144357;22;114012;-80
2023/06/27 03:06:11;;;;;;;7.43;5.47;;;23.20;54.70;;;;;;6142564;22;114904;-80
2023/06/27 03:08:38;;;;;;;6.13;4.80;;;23.30;55.20;;;;;;6142501;22;115187;-79
2023/06/27 03:11:06;;;;;;;5.68;4.53;;;23.30;53.60;;;;;;6143955;22;114380;-80
2023/06/27 03:13:34;;;;;;;7.18;5.30;;;23.30;52.90;;;;;;6144072;22;114439;-79
2023/06/27 03:16:03;;;;;;;5.47;4.70;;;23.30;54.00;;;;;;6142126;22;114829;-79
2023/06/27 03:18:30;;;;;;;6.00;4.93;;;23.40;53.20;;;;;;6142549;22;114500;-79
2023/06/27 03:20:58;;;;;;;5.75;5.10;;;23.30;54.00;;;;;;6143622;22;114387;-79
2023/06/27 03:23:26;;;;;;;5.90;4.80;;;23.30;53.30;;;;;;6144131;22;114458;-78
2023/06/27 03:25:55;;;;;;;6.30;4.93;;;23.40;53.10;;;;;;6142525;22;115260;-79
2023/06/27 03:28:22;;;;;;;6.03;4.97;;;23.50;53.40;;;;;;6144032;22;114642;-79
2023/06/27 03:30:53;;;;;;;6.75;4.75;;;23.50;53.70;;;;;;6143579;22;114850;-79
2023/06/27 03:33:20;;;;;;;5.18;4.63;;;23.50;53.20;;;;;;6117669;22;114530;-80
2023/06/27 03:35:49;;;;;;;5.68;4.70;;;23.60;52.50;;;;;;6118085;22;114792;-79
2023/06/27 03:38:17;;;;;;;7.22;5.40;;;23.60;52.50;;;;;;6141726;22;114994;-80
2023/06/27 03:40:44;;;;;;;6.93;5.22;;;23.60;53.30;;;;;;6142952;22;114355;-80
2023/06/27 03:43:14;;;;;;;6.05;4.63;;;23.60;54.30;;;;;;6145048;22;114403;-79
2023/06/27 03:45:41;;;;;;;5.07;4.18;;;23.60;52.40;;;;;;6143747;22;114966;-80
2023/06/27 03:48:10;;;;;;;7.32;5.32;;;23.60;52.40;;;;;;6141804;22;115129;-79
2023/06/27 03:50:37;;;;;;;6.55;5.10;;;23.60;53.30;;;;;;6145563;22;114226;-79
2023/06/27 03:53:05;;;;;;;6.50;4.75;;;23.60;53.00;;;;;;6143508;22;114276;-79
2023/06/27 03:55:33;;;;;;;6.85;5.07;;;23.60;52.60;;;;;;6119947;22;114428;-79
2023/06/27 03:58:01;;;;;;;5.72;4.90;;;23.60;53.50;;;;;;6118766;22;114179;-78
2023/06/27 04:00:29;;;;;;;6.85;5.10;;;23.70;52.40;;;;;;6119350;22;114409;-79
2023/06/27 04:02:57;;;;;;;5.95;4.95;;;23.70;52.60;;;;;;6145820;22;114052;-79
2023/06/27 04:05:25;;;;;;;7.70;5.22;;;23.70;53.10;;;;;;6142564;22;114937;-79
2023/06/27 04:07:52;;;;;;;7.15;5.75;;;23.70;53.90;;;;;;6118374;22;114773;-79
2023/06/27 04:10:20;;;;;;;7.30;5.85;;;23.60;53.70;;;;;;6145876;22;114371;-79
2023/06/27 04:12:47;;;;;;;7.00;5.65;;;23.60;53.60;;;;;;6144684;22;114470;-78
2023/06/27 04:15:14;;;;;;;6.75;5.85;;;23.50;53.10;;;;;;6141547;22;115092;-78
2023/06/27 04:17:44;;;;;;;7.43;6.15;;;23.60;54.90;;;;;;6118621;22;114970;-80
2023/06/27 04:20:12;;;;;;;11.00;7.22;;;23.40;55.10;;;;;;6144416;22;114395;-79
2023/06/27 04:22:39;;;;;;;6.95;5.78;;;23.30;55.60;;;;;;6144919;22;114543;-78
2023/06/27 04:25:10;;;;;;;7.53;5.80;;;23.30;54.10;;;;;;6118308;22;114896;-78
2023/06/27 04:27:38;;;;;;;6.43;5.70;;;23.20;54.20;;;;;;6142844;22;114516;-78
2023/06/27 04:30:06;;;;;;;6.20;5.60;;;23.20;54.50;;;;;;6145634;22;114298;-78
2023/06/27 04:32:33;;;;;;;7.90;5.88;;;23.00;54.00;;;;;;6145264;22;114307;-80
2023/06/27 04:35:03;;;;;;;6.75;5.72;;;23.00;54.40;;;;;;6142753;22;115174;-79
2023/06/27 04:37:30;;;;;;;8.82;7.13;;;23.10;54.10;;;;;;6142556;22;114678;-80
2023/06/27 04:39:57;;;;;;;6.45;5.63;;;23.10;55.40;;;;;;6145474;22;114321;-79
2023/06/27 04:42:26;;;;;;;6.45;5.55;;;23.00;55.00;;;;;;6144343;22;114106;-78
2023/06/27 04:44:55;;;;;;;5.72;5.13;;;22.90;54.70;;;;;;6143067;22;115290;-78
2023/06/27 04:47:23;;;;;;;7.50;6.60;;;22.80;55.00;;;;;;6142881;22;115046;-80
2023/06/27 04:49:51;;;;;;;7.32;5.65;;;22.80;55.90;;;;;;6145821;22;114364;-79
2023/06/27 04:52:18;;;;;;;9.27;8.23;;;22.80;55.50;;;;;;6145886;22;114443;-78
2023/06/27 04:54:49;;;;;;;8.07;6.40;;;22.80;56.30;;;;;;6142334;22;117865;-79
2023/06/27 04:57:17;;;;;;;6.68;4.85;;;22.70;56.00;;;;;;6144459;22;115105;-79
2023/06/27 04:59:46;;;;;;;8.45;7.60;;;22.60;55.30;;;;;;6144087;22;114475;-79
2023/06/27 05:02:13;;;;;;;7.50;5.40;;;22.70;56.40;;;;;;6145207;22;114166;-78
2023/06/27 05:04:40;;;;;;;9.10;6.88;;;22.70;55.60;;;;;;6144173;22;115398;-78
2023/06/27 05:07:07;;;;;;;9.88;8.82;;;22.80;55.90;;;;;;6143656;22;114803;-78
2023/06/27 05:09:34;;;;;;;10.48;8.43;;;22.80;56.50;;;;;;6142924;22;114218;-79
2023/06/27 05:12:02;;;;;;;9.45;7.35;;;22.50;56.90;;;;;;6143803;22;114292;-78
2023/06/27 05:14:29;;;;;;;13.02;8.48;;;22.40;56.50;;;;;;6142150;22;114927;-79
2023/06/27 05:16:56;;;;;;;11.57;7.10;;;22.40;56.70;;;;;;6141746;22;115067;-79
2023/06/27 05:19:23;;;;;;;10.30;7.93;;;22.40;56.60;;;;;;6141735;22;114188;-78
2023/06/27 05:21:50;;;;;;;9.18;6.72;;;22.30;57.10;;;;;;6143534;22;114393;-78
2023/06/27 05:24:18;;;;;;;11.40;8.13;;;22.10;57.10;;;;;;6140580;22;114783;-79
2023/06/27 05:26:45;;;;;;;11.82;7.55;;;22.00;57.50;;;;;;6141729;22;114924;-78
2023/06/27 05:29:12;;;;;;;7.90;6.15;;;21.90;57.70;;;;;;6140542;22;114357;-78
2023/06/27 05:31:48;;;;;;;6.78;5.32;;;21.90;57.50;;;;;;6142502;22;114598;-79
2023/06/27 05:34:15;;;;;;;8.48;6.20;;;22.00;56.90;;;;;;6115746;22;116353;-79
2023/06/27 05:36:42;;;;;;;9.93;6.10;;;22.10;56.90;;;;;;6142626;22;114653;-79
2023/06/27 05:39:09;;;;;;;8.82;5.50;;;22.00;56.80;;;;;;6143050;22;114150;-78
2023/06/27 05:41:37;;;;;;;9.68;6.10;;;22.00;56.60;;;;;;6143232;22;114199;-78
2023/06/27 05:44:04;;;;;;;10.88;6.32;;;22.10;56.50;;;;;;6139928;22;115146;-78
2023/06/27 05:46:38;;;;;;;6.68;5.00;;;22.20;56.10;;;;;;6141413;22;114677;-78
2023/06/27 05:49:07;;;;;;;10.68;6.32;;;22.30;55.80;;;;;;6147143;22;114486;-78
2023/06/27 05:51:35;;;;;;;10.88;6.22;;;22.20;55.80;;;;;;6144609;22;114323;-78
2023/06/27 05:54:02;;;;;;;13.40;6.00;;;22.20;55.80;;;;;;6142134;22;114791;-79
2023/06/27 05:56:30;;;;;;;11.13;6.13;;;22.10;56.00;;;;;;6142190;22;115234;-78
2023/06/27 05:58:57;;;;;;;12.00;6.68;;;22.00;55.90;;;;;;6143089;22;114397;-78
2023/06/27 06:01:24;;;;;;;8.32;6.35;;;21.90;56.00;;;;;;6143222;22;114410;-78
2023/06/27 06:03:53;;;;;;;8.50;5.45;;;21.80;56.10;;;;;;6141997;22;116609;-79
2023/06/27 06:06:21;;;;;;;7.68;5.13;;;21.90;56.20;;;;;;6142238;22;115626;-79
2023/06/27 06:08:48;;;;;;;8.55;5.00;;;22.00;56.10;;;;;;6142362;22;114342;-78
2023/06/27 06:11:16;;;;;;;7.35;5.97;;;22.10;55.70;;;;;;6142237;22;114404;-79
2023/06/27 06:13:43;;;;;;;8.82;5.35;;;22.20;55.70;;;;;;6142231;22;114899;-79
2023/06/27 06:16:10;;;;;;;10.68;6.20;;;22.30;55.20;;;;;;6114698;22;118138;-78
2023/06/27 06:18:37;;;;;;;9.75;6.45;;;22.30;54.60;;;;;;6117085;22;114340;-80
2023/06/27 06:21:05;;;;;;;9.35;6.30;;;22.30;54.60;;;;;;6141727;22;114228;-78
2023/06/27 06:23:32;;;;;;;7.57;5.22;;;22.20;54.40;;;;;;6141751;22;114886;-78
2023/06/27 06:25:59;;;;;;;7.18;4.55;;;22.30;54.60;;;;;;6142304;22;114524;-78
2023/06/27 06:28:26;;;;;;;10.60;6.40;;;22.50;54.30;;;;;;6142588;22;114071;-79
2023/06/27 06:30:53;;;;;;;11.32;5.65;;;22.50;53.60;;;;;;6142864;22;114245;-77
2023/06/27 06:33:22;;;;;;;11.27;7.30;;;22.40;54.00;;;;;;6140342;22;114923;-79
2023/06/27 06:35:49;;;;;;;8.15;5.93;;;22.50;53.60;;;;;;6139830;22;114608;-78
2023/06/27 06:38:16;;;;;;;11.05;6.68;;;22.40;53.80;;;;;;6145689;22;114357;-78
2023/06/27 06:40:44;;;;;;;7.78;6.65;;;22.40;53.40;;;;;;6142561;22;114471;-78
2023/06/27 06:43:11;;;;;;;10.25;7.57;;;22.30;53.80;;;;;;6141277;22;114872;-78
2023/06/27 06:45:38;;;;;;;10.60;6.97;;;22.30;53.80;;;;;;6140041;22;114667;-78
2023/06/27 06:48:06;;;;;;;11.60;7.88;;;22.30;54.00;;;;;;6141166;22;114157;-77
2023/06/27 06:50:34;;;;;;;9.68;6.22;;;22.30;54.30;;;;;;6116134;22;114325;-79
2023/06/27 06:53:01;;;;;;;8.85;6.45;;;22.40;54.00;;;;;;6141397;22;114822;-80
2023/06/27 06:55:28;;;;;;;8.23;6.07;;;22.40;53.80;;;;;;6141167;22;114625;-78
2023/06/27 06:57:55;;;;;;;9.45;7.25;;;22.50;53.80;;;;;;6142014;22;114101;-78
2023/06/27 07:00:23;;;;;;;10.98;7.43;;;22.40;53.60;;;;;;6142817;22;114152;-79
2023/06/27 07:02:50;;;;;;;9.90;6.22;;;22.30;53.90;;;;;;6141108;22;114814;-78
2023/06/27 07:05:18;;;;;;;13.13;7.78;;;22.30;53.90;;;;;;6115392;22;116797;-79
2023/06/27 07:07:48;;;;;;;10.77;7.25;;;22.30;54.00;;;;;;6142508;22;114369;-78
2023/06/27 07:10:15;;;;;;;7.13;6.13;;;22.30;54.10;;;;;;6142461;22;115100;-79
2023/06/27 07:12:43;;;;;;;8.73;6.25;;;22.40;54.00;;;;;;6139222;22;117364;-78
2023/06/27 07:15:11;;;;;;;7.57;5.68;;;22.50;53.90;;;;;;6141453;22;114541;-79
2023/06/27 07:17:38;;;;;;;10.07;6.97;;;22.60;53.70;;;;;;6142556;22;114971;-79
2023/06/27 07:20:08;;;;;;;12.65;6.80;;;22.70;53.50;;;;;;6141160;22;114353;-79
2023/06/27 07:22:36;;;;;;;12.35;7.72;;;22.70;53.30;;;;;;6140515;22;114829;-79
2023/06/27 07:25:03;;;;;;;11.07;7.40;;;22.80;53.00;;;;;;6139601;22;115887;-79
2023/06/27 07:27:31;;;;;;;10.30;7.28;;;22.80;53.00;;;;;;6142360;22;115362;-79
2023/06/27 07:29:58;;;;;;;12.80;7.38;;;22.70;53.10;;;;;;6140532;22;114533;-79
2023/06/27 07:32:25;;;;;;;7.90;6.00;;;22.70;53.20;;;;;;6140846;22;115367;-78
2023/06/27 07:34:53;;;;;;;8.50;5.68;;;22.60;52.30;;;;;;6141020;22;114596;-78
2023/06/27 07:37:20;;;;;;;7.05;4.88;;;22.40;50.90;;;;;;6142636;22;114278;-79
2023/06/27 07:39:47;;;;;;;9.15;5.25;;;22.20;51.20;;;;;;6143444;22;114695;-79
2023/06/27 07:42:17;;;;;;;7.10;4.55;;;22.00;51.90;;;;;;6143650;22;114839;-79
2023/06/27 07:44:44;;;;;;;7.88;4.90;;;21.90;51.40;;;;;;6139872;22;118107;-80
2023/06/27 07:47:11;;;;;;;7.72;5.03;;;21.90;51.80;;;;;;6141349;22;114390;-78
2023/06/27 07:49:38;;;;;;;9.63;5.38;;;21.90;52.30;;;;;;6142400;22;114261;-80
2023/06/27 07:52:07;;;;;;;9.27;5.03;;;21.90;52.70;;;;;;6141842;22;115234;-78
2023/06/27 07:54:36;;;;;;;8.77;5.85;;;22.00;51.70;;;;;;6114157;22;114956;-79
2023/06/27 07:57:03;;;;;;;11.45;5.68;;;21.90;52.30;;;;;;6140308;22;114351;-79
2023/06/27 07:59:31;;;;;;;8.40;6.03;;;21.80;52.10;;;;;;6141271;22;114294;-79
2023/06/27 08:01:58;;;;;;;9.18;5.90;;;21.60;52.50;;;;;;6140994;22;114882;-80
2023/06/27 08:04:25;;;;;;;8.43;5.10;;;21.50;54.20;;;;;;6141553;22;115649;-79
2023/06/27 08:06:54;;;;;;;9.88;6.03;;;21.60;52.60;;;;;;6140882;22;114110;-80
2023/06/27 08:09:22;;;;;;;10.82;5.95;;;21.70;53.90;;;;;;6140590;22;114368;-79
2023/06/27 08:11:50;;;;;;;9.43;5.47;;;21.80;53.10;;;;;;6140289;22;114889;-79
2023/06/27 08:14:17;;;;;;;8.00;5.25;;;21.80;52.90;;;;;;6140635;22;114532;-79
2023/06/27 08:16:45;;;;;;;9.13;5.15;;;21.90;52.40;;;;;;6115112;22;114644;-79
2023/06/27 08:19:12;;;;;;;10.13;5.22;;;21.90;51.60;;;;;;6142159;22;114405;-79
2023/06/27 08:21:39;;;;;;;7.95;4.47;;;21.80;51.90;;;;;;6139087;22;118028;-79
2023/06/27 08:24:06;;;;;;;11.70;4.90;;;21.80;51.50;;;;;;6140545;22;115311;-79
2023/06/27 08:26:33;;;;;;;6.90;3.88;;;21.90;51.70;;;;;;6141078;22;115072;-78
2023/06/27 08:29:00;;;;;;;10.65;4.55;;;21.90;50.80;;;;;;6141197;22;114205;-79
2023/06/27 08:31:28;;;;;;;7.75;4.55;;;21.90;51.90;;;;;;6113714;22;116077;-78
2023/06/27 08:33:58;;;;;;;7.25;4.53;;;21.90;51.80;;;;;;6138061;22;114523;-79
2023/06/27 08:36:28;;;;;;;8.23;4.50;;;22.00;50.90;;;;;;6140262;22;114393;-79
2023/06/27 08:38:56;;;;;;;8.10;4.75;;;22.00;51.50;;;;;;6110348;22;114509;-78
2023/06/27 08:41:23;;;;;;;6.45;3.90;;;22.00;51.70;;;;;;6140284;22;115230;-78
2023/06/27 08:43:51;;;;;;;8.60;4.40;;;22.20;52.50;;;;;;6140918;22;114560;-78
2023/06/27 08:46:21;;;;;;;9.95;4.90;;;22.30;51.30;;;;;;6140877;22;114122;-77
2023/06/27 08:48:50;;;;;;;8.57;4.70;;;22.50;52.10;;;;;;6139688;22;114557;-78
2023/06/27 08:51:23;;;;;;;8.55;4.13;;;22.60;50.30;;;;;;6138923;22;115584;-79
2023/06/27 08:53:55;;;;;;;6.93;3.70;;;22.50;48.90;;;;;;6090716;22;117108;-78
2023/06/27 08:56:29;;;;;;;8.02;4.10;;;22.30;49.10;;;;;;6140928;22;114990;-77
2023/06/27 08:59:03;;;;;;;7.33;4.03;;;22.00;49.80;;;;;;6140642;22;114626;-77
2023/06/27 09:01:32;;;;;;;;;;;21.80;49.90;;;;;;6141242;22;115167;-78
2023/06/27 09:04:03;;;;;;;10.25;3.97;;;21.80;50.30;;;;;;6139741;22;114790;-79
2023/06/27 09:06:30;;;;;;;7.75;4.05;;;21.80;51.50;;;;;;6141229;22;114409;-79
2023/06/27 09:08:57;;;;;;;10.10;3.60;;;22.00;49.90;;;;;;6140586;22;114339;-78
2023/06/27 09:11:27;;;;;;;9.40;3.70;;;22.10;49.20;;;;;;6139737;22;115628;-79
2023/06/27 09:13:54;;;;;;;7.43;3.28;;;22.10;49.30;;;;;;6140079;22;114828;-79
2023/06/27 09:16:22;;;;;;;8.77;3.17;;;22.00;48.30;;;;;;6142233;22;114459;-79
2023/06/27 09:18:50;;;;;;;7.78;3.45;;;21.90;48.20;;;;;;6141472;22;114192;-80
2023/06/27 09:21:22;;;;;;;6.82;3.80;;;21.90;48.90;;;;;;6115810;22;116019;-79
2023/06/27 09:23:50;;;;;;;8.63;4.20;;;21.90;48.80;;;;;;6140843;22;114580;-77
2023/06/27 09:26:21;;;;;;;7.65;3.53;;;21.90;49.10;;;;;;6140184;22;114058;-79
2023/06/27 09:28:52;;;;;;;7.30;3.53;;;22.10;50.80;;;;;;6142591;22;114236;-79
2023/06/27 09:31:21;;;;;;;7.18;3.22;;;22.10;48.70;;;;;;6139575;22;114950;-78
2023/06/27 09:33:48;;;;;;;9.60;4.03;;;22.10;49.40;;;;;;6143598;22;114806;-79
2023/06/27 09:36:32;;;;;;;7.28;3.83;;;22.20;48.60;;;;;;6140749;22;114272;-80
2023/06/27 09:39:10;;;;;;;6.72;3.08;;;22.30;48.80;;;;;;6141705;22;114267;-80
2023/06/27 09:41:49;;;;;;;8.75;3.88;;;22.40;49.60;;;;;;6141328;22;115212;-79
2023/06/27 09:44:18;;;;;;;7.50;2.83;;;22.50;48.10;;;;;;6115371;22;115194;-79
2023/06/27 09:46:47;;;;;;;6.57;3.50;;;22.40;49.60;;;;;;6142232;22;114122;-77
2023/06/27 09:49:18;;;;;;;6.22;3.22;;;22.40;48.00;;;;;;6142067;22;114314;-79
2023/06/27 09:51:46;;;;;;;6.13;3.13;;;22.30;47.50;;;;;;6139027;22;114885;-80
2023/06/27 09:54:13;;;;;;;7.93;3.10;;;22.30;49.10;;;;;;6141011;22;114566;-79
2023/06/27 09:56:50;;;;;;;6.80;2.80;;;22.40;47.60;;;;;;6142148;22;114112;-80
2023/06/27 09:59:21;;;;;;;9.18;3.00;;;22.60;46.20;;;;;;6116757;22;114541;-79
2023/06/27 10:01:52;;;;;;;5.50;2.90;;;22.50;47.40;;;;;;6115603;22;114774;-78
2023/06/27 10:04:20;;;;;;;5.20;2.83;;;22.40;46.90;;;;;;6140711;22;115836;-80
2023/06/27 10:07:07;;;;;;;7.40;3.33;;;22.50;47.20;;;;;;6140491;22;114304;-79
2023/06/27 10:09:37;;;;;;;6.45;3.15;;;22.60;48.40;;;;;;6116923;22;114307;-80
2023/06/27 10:12:06;;;;;;;5.63;2.65;;;22.60;46.40;;;;;;6139224;22;115307;-79
2023/06/27 10:14:33;;;;;;;6.93;5.05;;;22.70;46.10;;;;;;6140378;22;115226;-79
2023/06/27 10:17:01;;;;;;;8.30;3.65;;;22.70;47.50;;;;;;6115823;22;114563;-80
2023/06/27 10:19:35;;;;;;;6.68;2.80;;;22.70;46.30;;;;;;6142450;22;115195;-78
2023/06/27 10:22:08;;;;;;;7.03;3.13;;;22.80;46.50;;;;;;6141027;22;115439;-78
2023/06/27 10:25:45;;;;;;;5.13;2.83;;;22.90;45.90;;;;;;6139239;22;114772;-79
2023/06/27 10:28:19;;;;;;;5.78;2.40;;;23.00;46.90;;;;;;6142005;22;114489;-79
2023/06/27 10:42:18;;;;;;;4.57;2.88;;;22.90;45.60;;;;;;6141389;22;114318;-78
2023/06/27 10:45:05;;;;;;;6.35;2.70;;;22.90;44.80;;;;;;6141719;22;114203;-77
2023/06/27 10:47:41;;;;;;;5.82;2.90;;;22.90;44.40;;;;;;6139081;22;117912;-79
2023/06/27 10:50:14;;;;;;;5.82;3.10;;;22.80;43.80;;;;;;6140677;22;114658;-79
2023/06/27 10:53:01;;;;;;;5.68;2.95;;;22.80;45.20;;;;;;6142100;22;114279;-78
2023/06/27 10:55:32;;;;;;;6.25;2.72;;;22.90;45.40;;;;;;6119494;22;114737;-79
2023/06/27 10:58:09;;;;;;;6.22;2.63;;;23.00;44.50;;;;;;6140415;22;115503;-79
2023/06/27 11:00:44;;;;;;;5.68;2.65;;;23.00;43.00;;;;;;6142072;22;115468;-79
2023/06/27 11:03:14;;;;;;;7.10;2.75;;;23.00;44.40;;;;;;6141454;22;114352;-79
2023/06/27 11:05:51;;;;;;;6.88;2.55;;;23.00;45.00;;;;;;6141260;22;114013;-78
2023/06/27 11:08:28;;;;;;;5.65;2.58;;;23.20;45.90;;;;;;6117465;22;115404;-79
2023/06/27 11:10:59;;;;;;;6.32;2.90;;;23.30;44.50;;;;;;6140677;22;114625;-79
2023/06/27 11:13:27;;;;;;;7.07;2.58;;;23.50;44.10;;;;;;6142580;22;114113;-78
2023/06/27 11:15:54;;;;;;;6.20;2.72;;;23.50;42.60;;;;;;6141638;22;114321;-78
2023/06/27 11:18:25;;;;;;;6.68;3.10;;;23.50;42.30;;;;;;6140504;22;114750;-78
2023/06/27 11:20:56;;;;;;;;;;;23.30;42.50;;;;;;6142898;22;114580;-79
2023/06/27 11:23:25;;;;;;;6.28;2.42;;;23.30;43.50;;;;;;6141859;22;114240;-79
2023/06/27 11:25:53;;;;;;;6.03;2.38;;;23.30;42.70;;;;;;6143116;22;114287;-79
2023/06/27 11:28:22;;;;;;;4.63;2.13;;;23.30;41.90;;;;;;6141970;22;115187;-78
2023/06/27 11:30:50;;;;;;;4.85;2.80;;;23.30;41.90;;;;;;6142079;22;114570;-78
2023/06/27 11:33:19;;;;;;;6.53;3.25;;;23.30;42.60;;;;;;6142061;22;114307;-78
2023/06/27 11:35:47;;;;;;;7.05;2.88;;;23.40;42.60;;;;;;6143148;22;114434;-79
2023/06/27 11:38:15;;;;;;;5.85;2.90;;;23.40;39.90;;;;;;6139403;22;114839;-78
2023/06/27 11:40:51;;;;;;;5.10;2.20;;;23.30;43.70;;;;;;6140444;22;115862;-78
2023/06/27 11:43:19;;;;;;;7.03;2.45;;;23.40;42.00;;;;;;6141294;22;114151;-79
2023/06/27 11:45:54;;;;;;;5.30;2.40;;;23.40;39.90;;;;;;6141073;22;114185;-78
2023/06/27 11:48:21;;;;;;;3.90;2.60;;;23.30;40.40;;;;;;6139703;22;114845;-77
2023/06/27 11:51:07;;;;;;;6.32;2.88;;;23.00;42.30;;;;;;6140947;22;114577;-78
2023/06/27 11:53:35;;;;;;;5.93;2.70;;;23.00;42.30;;;;;;6142235;22;114146;-78
2023/06/27 11:56:03;;;;;;;6.32;2.30;;;22.90;41.20;;;;;;6142755;22;114438;-78
2023/06/27 11:58:48;;;;;;;7.50;2.70;;;22.80;41.20;;;;;;6141002;22;115281;-79
2023/06/27 12:01:16;;;;;;;6.72;2.40;;;22.90;43.30;;;;;;6140956;22;114636;-79
2023/06/27 12:03:50;;;;;;;4.68;2.35;;;22.90;43.50;;;;;;6141529;22;114835;-80
2023/06/27 12:06:24;;;;;;;4.75;2.47;;;23.00;45.00;;;;;;6141644;22;114211;-80
2023/06/27 12:08:52;;;;;;;5.40;2.80;;;23.00;44.80;;;;;;6141574;22;114852;-78
2023/06/27 12:11:34;;;;;;;5.63;2.65;;;23.00;45.10;;;;;;6140969;22;114768;-78
2023/06/27 12:14:03;;;;;;;4.95;2.70;;;23.10;44.10;;;;;;6142235;22;114198;-79
2023/06/27 12:16:33;;;;;;;7.15;2.85;;;23.20;45.30;;;;;;6117208;22;114337;-78
2023/06/27 12:19:05;;;;;;;5.13;2.50;;;23.10;44.30;;;;;;6142112;22;114812;-79
2023/06/27 12:21:32;;;;;;;4.88;2.70;;;23.10;44.90;;;;;;6144332;22;114659;-78
2023/06/27 12:24:00;;;;;;;5.78;2.70;;;23.00;45.20;;;;;;6143702;22;114076;-80
2023/06/27 12:26:27;;;;;;;8.10;2.88;;;23.00;45.00;;;;;;6142180;22;114481;-79
2023/06/27 12:29:00;;;;;;;4.22;2.60;;;22.90;45.00;;;;;;6141319;22;115677;-79
2023/06/27 12:31:28;;;;;;;6.53;3.50;;;22.90;45.30;;;;;;6141175;22;114492;-78
2023/06/27 12:33:56;;;;;;;9.20;3.22;;;22.90;45.20;;;;;;6143138;22;114352;-78
2023/06/27 12:36:24;;;;;;;6.70;2.85;;;22.90;45.30;;;;;;6142046;22;114266;-77
2023/06/27 12:38:51;;;;;;;4.40;2.70;;;22.80;45.30;;;;;;6142193;22;114826;-78
2023/06/27 12:41:22;;;;;;;5.50;2.78;;;22.70;46.60;;;;;;6142863;22;114630;-79
2023/06/27 12:43:53;;;;;;;5.28;2.85;;;22.70;46.50;;;;;;6143506;22;114045;-77
2023/06/27 12:46:20;;;;;;;6.75;2.85;;;22.70;46.40;;;;;;6144225;22;114081;-79
2023/06/27 12:48:47;;;;;;;4.80;2.92;;;22.50;46.70;;;;;;6142420;22;114850;-80
2023/06/27 12:51:15;;;;;;;8.55;3.10;;;22.40;47.10;;;;;;6142795;22;114608;-79
2023/06/27 12:53:47;;;;;;;4.85;2.88;;;22.30;47.20;;;;;;6143567;22;114443;-79
2023/06/27 12:56:15;;;;;;;6.07;3.17;;;22.10;48.40;;;;;;6117674;22;114293;-79
2023/06/27 12:58:47;;;;;;;5.55;3.00;;;22.00;48.20;;;;;;6140617;22;114891;-78